Time;durP1;ratioP1;P1;durP2;ratioP2;P2;SDS_P1;SDS_P2;PMS_P1;PMS_P2;Temp;Humidity;BMP_temperature;BMP_pressure;BME280_temperature;BME280_humidity;BME280_pressure;Samples;Min_cycle;Max_cycle;Signal;HPM_P1;HPM_P2
2023/09/09 00:00:39;;;;;;;14.03;12.80;;;;;;;;;;4893295;29;20465;-73
2023/09/09 00:03:05;;;;;;;12.03;11.30;;;;;;;;;;4893407;29;20440;-73
2023/09/09 00:05:31;;;;;;;12.30;11.33;;;;;;;;;;4893667;29;20453;-72
2023/09/09 00:07:57;;;;;;;13.40;12.30;;;;;;;;;;4895097;29;20440;-73
2023/09/09 00:10:23;;;;;;;13.20;12.03;;;;;;;;;;4893219;29;20936;-71
2023/09/09 00:12:49;;;;;;;12.40;11.70;;;;;;;;;;4896259;29;20475;-70
2023/09/09 00:15:15;;;;;;;13.17;12.37;;;;;;;;;;4887817;29;20838;-73
2023/09/09 00:17:41;;;;;;;13.60;12.60;;;;;;;;;;4894294;29;20440;-73
2023/09/09 00:20:11;;;;;;;12.90;12.07;;;;;;;;;;4889374;29;20890;-72
2023/09/09 00:22:38;;;;;;;13.30;12.30;;;;;;;;;;4889363;29;20585;-72
2023/09/09 00:25:04;;;;;;;12.57;11.60;;;;;;;;;;4890982;29;20436;-72
2023/09/09 00:27:30;;;;;;;14.47;13.17;;;;;;;;;;4889662;29;20433;-71
2023/09/09 00:29:56;;;;;;;13.03;12.00;;;;;;;;;;4893037;29;20487;-73
2023/09/09 00:32:22;;;;;;;12.70;11.87;;;;;;;;;;4891594;29;20476;-70
2023/09/09 00:34:48;;;;;;;14.57;13.10;;;;;;;;;;4896642;29;21260;-72
2023/09/09 00:37:14;;;;;;;12.80;12.00;;;;;;;;;;4894057;29;20874;-71
2023/09/09 00:39:40;;;;;;;13.30;12.50;;;;;;;;;;4890264;29;20452;-72
2023/09/09 00:42:06;;;;;;;12.00;11.30;;;;;;;;;;4898012;29;20443;-71
2023/09/09 00:44:32;;;;;;;13.70;12.70;;;;;;;;;;4890622;29;20441;-71
2023/09/09 00:46:59;;;;;;;12.30;11.30;;;;;;;;;;4889705;29;20497;-71
2023/09/09 00:49:25;;;;;;;12.57;11.67;;;;;;;;;;4891191;29;20527;-72
2023/09/09 00:51:52;;;;;;;12.67;11.87;;;;;;;;;;4890615;29;20473;-72
2023/09/09 00:54:18;;;;;;;13.83;12.53;;;;;;;;;;4889701;29;20536;-72
2023/09/09 00:56:44;;;;;;;12.33;11.53;;;;;;;;;;4890652;29;20453;-72
2023/09/09 00:59:12;;;;;;;12.17;11.33;;;;;;;;;;4890838;29;20555;-72
2023/09/09 01:01:37;;;;;;;12.07;11.37;;;;;;;;;;4889237;29;20472;-72
2023/09/09 01:04:04;;;;;;;13.87;12.73;;;;;;;;;;4890655;29;20509;-72
2023/09/09 01:06:30;;;;;;;12.80;11.80;;;;;;;;;;4888410;29;20977;-72
2023/09/09 01:08:56;;;;;;;13.30;12.40;;;;;;;;;;4883458;29;20547;-72
2023/09/09 01:11:22;;;;;;;12.60;11.77;;;;;;;;;;4887218;29;20473;-72
2023/09/09 01:13:49;;;;;;;13.43;12.63;;;;;;;;;;4890279;29;20456;-72
2023/09/09 01:16:15;;;;;;;12.37;11.57;;;;;;;;;;4881373;29;20481;-72
2023/09/09 01:18:41;;;;;;;13.37;12.30;;;;;;;;;;4877259;29;20504;-72
2023/09/09 01:21:11;;;;;;;12.77;11.87;;;;;;;;;;4875950;29;20441;-71
2023/09/09 01:23:37;;;;;;;12.97;12.17;;;;;;;;;;4882454;29;20454;-71
2023/09/09 01:26:03;;;;;;;13.10;12.30;;;;;;;;;;4883749;29;20441;-72
2023/09/09 01:28:29;;;;;;;11.70;11.10;;;;;;;;;;4889513;29;20445;-72
2023/09/09 01:30:55;;;;;;;11.67;10.70;;;;;;;;;;4890660;29;20508;-72
2023/09/09 01:33:21;;;;;;;12.57;11.67;;;;;;;;;;4889869;29;20448;-71
2023/09/09 01:35:47;;;;;;;12.40;11.60;;;;;;;;;;4889168;29;20441;-72
2023/09/09 01:38:14;;;;;;;12.17;11.23;;;;;;;;;;4883747;29;20449;-72
2023/09/09 01:40:40;;;;;;;12.90;11.73;;;;;;;;;;4885875;29;20442;-71
2023/09/09 01:43:06;;;;;;;13.20;12.20;;;;;;;;;;4890763;29;20488;-73
2023/09/09 01:45:32;;;;;;;12.93;11.97;;;;;;;;;;4890156;29;20444;-71
2023/09/09 01:47:58;;;;;;;12.23;11.27;;;;;;;;;;4890395;29;20436;-71
2023/09/09 01:50:24;;;;;;;12.80;12.00;;;;;;;;;;4889883;29;20436;-71
2023/09/09 01:52:50;;;;;;;12.67;11.60;;;;;;;;;;4882707;29;20484;-71
2023/09/09 01:55:16;;;;;;;12.60;11.80;;;;;;;;;;4881848;29;20437;-72
2023/09/09 01:57:42;;;;;;;12.27;11.53;;;;;;;;;;4886808;29;20508;-71
2023/09/09 02:00:09;;;;;;;11.60;10.80;;;;;;;;;;4888059;29;20539;-71
2023/09/09 02:02:35;;;;;;;13.30;12.40;;;;;;;;;;4882054;29;20579;-71
2023/09/09 02:05:01;;;;;;;13.23;12.13;;;;;;;;;;4880377;29;20456;-71
2023/09/09 02:07:27;;;;;;;12.70;12.00;;;;;;;;;;4883594;29;20468;-71
2023/09/09 02:09:53;;;;;;;11.97;11.27;;;;;;;;;;4888196;29;20941;-71
2023/09/09 02:12:19;;;;;;;12.90;12.03;;;;;;;;;;4885533;29;20964;-72
2023/09/09 02:14:45;;;;;;;12.20;11.50;;;;;;;;;;4889877;29;20417;-71
2023/09/09 02:17:12;;;;;;;12.20;11.50;;;;;;;;;;4889031;29;20439;-71
2023/09/09 02:19:38;;;;;;;13.27;12.43;;;;;;;;;;4887312;29;20458;-71
2023/09/09 02:22:08;;;;;;;12.50;11.70;;;;;;;;;;4881019;29;20437;-72
2023/09/09 02:24:33;;;;;;;12.40;11.60;;;;;;;;;;4889072;29;20453;-71
2023/09/09 02:27:00;;;;;;;12.40;11.70;;;;;;;;;;4883304;29;20448;-72
2023/09/09 02:29:26;;;;;;;12.90;11.83;;;;;;;;;;4894281;29;20420;-72
2023/09/09 02:31:52;;;;;;;12.13;11.43;;;;;;;;;;4886699;29;20475;-72
2023/09/09 02:34:18;;;;;;;13.80;11.50;;;;;;;;;;4889991;29;20421;-72
2023/09/09 02:36:45;;;;;;;12.63;11.80;;;;;;;;;;4887480;29;20512;-72
2023/09/09 02:39:11;;;;;;;12.13;11.23;;;;;;;;;;4889539;29;20472;-72
2023/09/09 02:41:37;;;;;;;13.60;12.40;;;;;;;;;;4887330;29;20879;-72
2023/09/09 02:44:03;;;;;;;13.20;12.20;;;;;;;;;;4878296;29;20523;-71
2023/09/09 02:46:29;;;;;;;13.10;12.00;;;;;;;;;;4888616;29;20496;-71
2023/09/09 02:48:55;;;;;;;13.20;12.20;;;;;;;;;;4888663;29;20859;-72
2023/09/09 02:51:21;;;;;;;12.13;11.33;;;;;;;;;;4883573;29;20484;-72
2023/09/09 02:53:47;;;;;;;12.30;11.53;;;;;;;;;;4885923;29;20445;-72
2023/09/09 02:56:13;;;;;;;11.47;10.67;;;;;;;;;;4886037;29;20448;-72
2023/09/09 02:58:39;;;;;;;11.10;10.30;;;;;;;;;;4883173;29;20463;-72
2023/09/09 03:01:06;;;;;;;12.77;11.77;;;;;;;;;;4886543;29;20480;-72
2023/09/09 03:03:33;;;;;;;11.60;11.00;;;;;;;;;;4888788;29;20592;-71
2023/09/09 03:06:00;;;;;;;11.60;10.80;;;;;;;;;;4882184;29;20542;-71
2023/09/09 03:08:26;;;;;;;12.30;11.60;;;;;;;;;;4888287;29;20456;-71
2023/09/09 03:10:55;;;;;;;12.70;11.90;;;;;;;;;;4875323;29;20449;-71
2023/09/09 03:13:21;;;;;;;12.30;11.50;;;;;;;;;;4885280;29;20834;-71
2023/09/09 03:15:47;;;;;;;12.20;11.40;;;;;;;;;;4881263;29;20521;-71
2023/09/09 03:18:13;;;;;;;10.93;10.17;;;;;;;;;;4888923;29;20631;-71
2023/09/09 03:20:39;;;;;;;11.83;11.07;;;;;;;;;;4888451;29;20440;-71
2023/09/09 03:23:05;;;;;;;13.17;12.03;;;;;;;;;;4888428;29;20456;-71
2023/09/09 03:25:31;;;;;;;12.23;10.83;;;;;;;;;;4888732;29;20442;-71
2023/09/09 03:27:57;;;;;;;12.10;11.30;;;;;;;;;;4881948;29;20460;-72
2023/09/09 03:30:23;;;;;;;12.57;11.73;;;;;;;;;;4888314;29;20508;-71
2023/09/09 03:32:49;;;;;;;11.93;11.23;;;;;;;;;;4886934;29;20532;-71
2023/09/09 03:35:15;;;;;;;13.43;12.30;;;;;;;;;;4888999;29;20992;-71
2023/09/09 03:37:41;;;;;;;12.27;11.60;;;;;;;;;;4887988;29;20472;-71
2023/09/09 03:40:07;;;;;;;11.60;10.90;;;;;;;;;;4887362;29;20433;-71
2023/09/09 03:42:33;;;;;;;11.10;10.50;;;;;;;;;;4880629;29;20444;-71
2023/09/09 03:44:59;;;;;;;10.57;9.97;;;;;;;;;;4886117;29;20439;-72
2023/09/09 03:47:25;;;;;;;10.70;10.10;;;;;;;;;;4888140;29;21181;-71
2023/09/09 03:49:53;;;;;;;13.63;12.47;;;;;;;;;;4889286;29;20444;-71
2023/09/09 03:52:19;;;;;;;11.93;11.23;;;;;;;;;;4884642;29;20468;-71
2023/09/09 03:54:45;;;;;;;12.77;11.97;;;;;;;;;;4889677;29;20428;-71
2023/09/09 03:57:11;;;;;;;13.13;12.23;;;;;;;;;;4882979;29;20443;-71
2023/09/09 03:59:37;;;;;;;12.00;11.20;;;;;;;;;;4887746;29;20925;-71
2023/09/09 04:02:03;;;;;;;12.27;11.43;;;;;;;;;;4892218;29;20527;-72
2023/09/09 04:04:29;;;;;;;11.87;11.07;;;;;;;;;;4891800;29;20448;-72
2023/09/09 04:06:55;;;;;;;13.53;12.27;;;;;;;;;;4890338;29;20440;-71
2023/09/09 04:09:26;;;;;;;12.50;11.70;;;;;;;;;;4877101;29;20511;-71
2023/09/09 04:11:52;;;;;;;11.90;10.80;;;;;;;;;;4891999;29;20484;-70
2023/09/09 04:14:18;;;;;;;11.83;11.17;;;;;;;;;;4886480;29;20457;-71
2023/09/09 04:16:44;;;;;;;11.70;10.80;;;;;;;;;;4890472;29;20480;-71
2023/09/09 04:19:10;;;;;;;11.83;10.93;;;;;;;;;;4891843;29;20452;-71
2023/09/09 04:21:36;;;;;;;12.87;11.87;;;;;;;;;;4890754;29;20535;-71
2023/09/09 04:24:02;;;;;;;11.70;10.87;;;;;;;;;;4888517;29;20460;-71
2023/09/09 04:26:28;;;;;;;13.00;11.80;;;;;;;;;;4889039;29;20981;-71
2023/09/09 04:28:54;;;;;;;12.67;11.10;;;;;;;;;;4887283;29;20512;-72
2023/09/09 04:31:20;;;;;;;12.27;11.30;;;;;;;;;;4888650;29;20475;-71
2023/09/09 04:33:46;;;;;;;11.90;11.20;;;;;;;;;;4890719;29;20460;-72
2023/09/09 04:36:12;;;;;;;11.87;11.03;;;;;;;;;;4890410;29;20562;-71
2023/09/09 04:38:38;;;;;;;11.63;10.83;;;;;;;;;;4891734;29;20965;-71
2023/09/09 04:41:04;;;;;;;11.97;10.87;;;;;;;;;;4890038;29;20441;-71
2023/09/09 04:43:30;;;;;;;12.33;11.27;;;;;;;;;;4887497;29;20453;-70
2023/09/09 04:45:56;;;;;;;12.40;11.53;;;;;;;;;;4891499;29;20444;-71
2023/09/09 04:48:22;;;;;;;12.47;11.20;;;;;;;;;;4890360;29;20456;-72
2023/09/09 04:50:48;;;;;;;12.13;11.37;;;;;;;;;;4893598;29;20440;-71
2023/09/09 04:53:14;;;;;;;11.70;11.00;;;;;;;;;;4892100;29;20842;-71
2023/09/09 04:55:40;;;;;;;14.97;12.17;;;;;;;;;;4901326;29;20758;-71
2023/09/09 04:58:06;;;;;;;12.53;11.57;;;;;;;;;;4893134;29;20456;-71
2023/09/09 05:00:32;;;;;;;12.63;11.83;;;;;;;;;;4889565;29;20457;-73
2023/09/09 05:02:58;;;;;;;12.27;11.17;;;;;;;;;;4890913;29;20456;-71
2023/09/09 05:05:24;;;;;;;11.50;10.70;;;;;;;;;;4890076;29;20421;-71
2023/09/09 05:07:50;;;;;;;11.77;11.07;;;;;;;;;;4889461;29;20455;-71
2023/09/09 05:10:18;;;;;;;11.50;10.80;;;;;;;;;;4890856;29;20424;-72
2023/09/09 05:12:44;;;;;;;12.07;11.17;;;;;;;;;;4889715;29;20825;-71
2023/09/09 05:15:10;;;;;;;12.07;11.37;;;;;;;;;;4890297;29;20437;-72
2023/09/09 05:17:36;;;;;;;12.77;11.90;;;;;;;;;;4887505;29;20453;-72
2023/09/09 05:20:03;;;;;;;11.50;10.47;;;;;;;;;;4892472;29;20420;-72
2023/09/09 05:22:29;;;;;;;12.87;11.83;;;;;;;;;;4887521;29;20855;-71
2023/09/09 05:24:55;;;;;;;12.33;11.40;;;;;;;;;;4889376;29;20425;-72
2023/09/09 05:27:21;;;;;;;10.70;10.00;;;;;;;;;;4888228;29;20967;-71
2023/09/09 05:29:47;;;;;;;11.57;10.87;;;;;;;;;;4889137;29;20512;-71
2023/09/09 05:32:13;;;;;;;11.60;10.80;;;;;;;;;;4883030;29;20468;-72
2023/09/09 05:34:39;;;;;;;72.40;27.83;;;;;;;;;;4886129;29;20429;-71
2023/09/09 05:37:05;;;;;;;447.27;105.37;;;;;;;;;;4889288;29;20500;-72
2023/09/09 05:39:31;;;;;;;41.20;22.17;;;;;;;;;;4880279;29;20448;-73
2023/09/09 05:41:57;;;;;;;27.40;14.70;;;;;;;;;;4886653;29;20433;-72
2023/09/09 05:44:23;;;;;;;30.23;16.40;;;;;;;;;;4880196;29;20445;-72
2023/09/09 05:46:49;;;;;;;113.33;40.13;;;;;;;;;;4888713;29;20423;-72
2023/09/09 05:49:15;;;;;;;13.87;12.50;;;;;;;;;;4881027;29;20848;-71
2023/09/09 05:51:41;;;;;;;34.00;14.40;;;;;;;;;;4887174;29;20485;-71
2023/09/09 05:54:07;;;;;;;15.10;11.63;;;;;;;;;;4887598;29;20444;-72
2023/09/09 05:56:34;;;;;;;9.97;9.27;;;;;;;;;;4884484;29;20429;-73
2023/09/09 05:58:59;;;;;;;10.40;9.37;;;;;;;;;;4887846;29;20480;-72
2023/09/09 06:01:25;;;;;;;9.03;8.53;;;;;;;;;;4888761;29;20980;-72
2023/09/09 06:03:54;;;;;;;8.60;8.20;;;;;;;;;;4880456;29;20493;-72
2023/09/09 06:06:21;;;;;;;9.10;8.60;;;;;;;;;;4889004;29;21954;-73
2023/09/09 06:08:47;;;;;;;8.60;8.23;;;;;;;;;;4886671;29;20848;-72
2023/09/09 06:11:14;;;;;;;9.27;8.77;;;;;;;;;;4886580;29;20474;-73
2023/09/09 06:13:40;;;;;;;8.90;8.13;;;;;;;;;;4883640;29;20532;-72
2023/09/09 06:16:06;;;;;;;9.00;8.50;;;;;;;;;;4882994;29;20535;-72
2023/09/09 06:18:32;;;;;;;8.50;7.90;;;;;;;;;;4884499;29;20783;-71
2023/09/09 06:20:58;;;;;;;9.00;8.47;;;;;;;;;;4883643;29;20744;-72
2023/09/09 06:23:24;;;;;;;8.33;7.83;;;;;;;;;;4895395;29;20440;-73
2023/09/09 06:25:51;;;;;;;8.10;7.60;;;;;;;;;;4894026;29;20847;-72
2023/09/09 06:28:17;;;;;;;8.30;7.90;;;;;;;;;;4884163;29;20484;-72
2023/09/09 06:30:43;;;;;;;9.00;8.30;;;;;;;;;;4888003;29;20449;-72
2023/09/09 06:33:10;;;;;;;8.50;7.90;;;;;;;;;;4898063;29;20488;-73
2023/09/09 06:35:37;;;;;;;8.60;8.10;;;;;;;;;;4881765;29;20457;-72
2023/09/09 06:38:03;;;;;;;9.60;9.00;;;;;;;;;;4886123;29;20500;-72
2023/09/09 06:40:31;;;;;;;8.50;7.90;;;;;;;;;;4876608;29;21109;-72
2023/09/09 06:42:57;;;;;;;9.30;8.53;;;;;;;;;;4881452;29;20434;-73
2023/09/09 06:45:23;;;;;;;8.37;8.00;;;;;;;;;;4874039;29;20484;-72
2023/09/09 06:47:49;;;;;;;8.40;8.00;;;;;;;;;;4877067;29;20491;-72
2023/09/09 06:50:15;;;;;;;8.17;7.57;;;;;;;;;;4877541;29;20484;-72
2023/09/09 06:52:41;;;;;;;8.30;7.90;;;;;;;;;;4878173;29;20726;-73
2023/09/09 06:55:08;;;;;;;9.23;8.30;;;;;;;;;;4875025;29;21136;-72
2023/09/09 06:57:34;;;;;;;12.50;8.10;;;;;;;;;;4881381;29;20835;-71
2023/09/09 07:00:00;;;;;;;8.73;7.87;;;;;;;;;;4881383;29;21076;-72
2023/09/09 07:02:26;;;;;;;8.47;7.80;;;;;;;;;;4880993;29;20452;-77
2023/09/09 07:04:54;;;;;;;9.70;8.13;;;;;;;;;;4876252;29;20552;-75
2023/09/09 07:07:20;;;;;;;8.67;8.07;;;;;;;;;;4873271;29;20545;-75
2023/09/09 07:09:45;;;;;;;9.03;8.33;;;;;;;;;;4874074;29;20457;-72
2023/09/09 07:12:11;;;;;;;8.20;7.90;;;;;;;;;;4869826;29;20484;-73
2023/09/09 07:14:38;;;;;;;8.53;7.93;;;;;;;;;;4871052;29;20992;-73
2023/09/09 07:17:04;;;;;;;6.90;6.70;;;;;;;;;;4877771;29;20528;-73
2023/09/09 07:19:30;;;;;;;8.20;7.60;;;;;;;;;;4879250;29;21011;-70
2023/09/09 07:21:56;;;;;;;8.00;7.67;;;;;;;;;;4873472;29;20432;-72
2023/09/09 07:24:22;;;;;;;8.70;7.93;;;;;;;;;;4889560;29;20766;-73
2023/09/09 07:26:48;;;;;;;7.50;7.17;;;;;;;;;;4889382;29;20817;-72
2023/09/09 07:29:14;;;;;;;7.67;7.20;;;;;;;;;;4876560;29;20457;-73
2023/09/09 07:31:40;;;;;;;7.97;7.37;;;;;;;;;;4888149;29;20477;-73
2023/09/09 07:34:06;;;;;;;7.63;7.20;;;;;;;;;;4895820;29;20489;-72
2023/09/09 07:36:32;;;;;;;8.50;8.00;;;;;;;;;;4881757;29;20460;-73
2023/09/09 07:38:58;;;;;;;8.03;7.40;;;;;;;;;;4879770;29;20965;-73
2023/09/09 07:41:24;;;;;;;8.17;7.60;;;;;;;;;;4885650;29;20931;-73
2023/09/09 07:43:50;;;;;;;6.80;6.60;;;;;;;;;;4889820;29;20452;-73
2023/09/09 07:46:16;;;;;;;7.47;6.93;;;;;;;;;;4882711;29;20469;-72
2023/09/09 07:48:42;;;;;;;7.33;7.03;;;;;;;;;;4892733;29;20431;-72
2023/09/09 07:51:08;;;;;;;6.40;6.03;;;;;;;;;;4883150;29;20449;-73
2023/09/09 07:53:34;;;;;;;6.47;6.27;;;;;;;;;;4869238;29;20816;-72
2023/09/09 07:56:00;;;;;;;6.37;6.07;;;;;;;;;;4887692;29;20967;-72
2023/09/09 07:58:26;;;;;;;6.50;6.20;;;;;;;;;;4880156;29;20448;-74
2023/09/09 08:01:03;;;;;;;7.63;7.20;;;;;;;;;;4883509;29;20467;-74
2023/09/09 08:03:29;;;;;;;7.40;6.87;;;;;;;;;;4879565;29;20436;-71
2023/09/09 08:06:02;;;;;;;6.47;6.23;;;;;;;;;;4876527;29;20602;-71
2023/09/09 08:08:28;;;;;;;7.73;7.27;;;;;;;;;;4881625;29;20856;-73
2023/09/09 08:10:54;;;;;;;6.80;6.50;;;;;;;;;;4871976;29;20521;-73
2023/09/09 08:13:20;;;;;;;7.73;7.20;;;;;;;;;;4882987;29;20508;-72
2023/09/09 08:15:46;;;;;;;6.40;6.20;;;;;;;;;;4885882;29;20440;-72
2023/09/09 08:18:12;;;;;;;7.00;6.30;;;;;;;;;;4882921;29;20460;-74
2023/09/09 08:20:38;;;;;;;6.63;6.47;;;;;;;;;;4878945;29;20457;-73
2023/09/09 08:23:04;;;;;;;6.30;6.10;;;;;;;;;;4878849;29;20938;-72
2023/09/09 08:25:32;;;;;;;6.00;5.90;;;;;;;;;;4887745;29;20445;-72
2023/09/09 08:28:01;;;;;;;7.37;6.97;;;;;;;;;;4876260;29;20823;-73
2023/09/09 08:30:27;;;;;;;6.93;6.30;;;;;;;;;;4882639;29;20456;-73
2023/09/09 08:32:53;;;;;;;7.33;6.73;;;;;;;;;;4882695;29;20480;-73
2023/09/09 08:35:19;;;;;;;7.20;6.77;;;;;;;;;;4878111;29;20492;-72
2023/09/09 08:37:45;;;;;;;6.33;5.80;;;;;;;;;;4876983;29;21011;-72
2023/09/09 08:40:11;;;;;;;6.67;6.30;;;;;;;;;;4882367;29;20429;-73
2023/09/09 08:42:47;;;;;;;7.07;6.77;;;;;;;;;;4880875;29;20926;-73
2023/09/09 08:45:19;;;;;;;7.37;6.80;;;;;;;;;;4879830;29;20542;-72
2023/09/09 08:47:45;;;;;;;6.67;6.17;;;;;;;;;;4882577;29;21268;-73
2023/09/09 08:50:12;;;;;;;7.47;6.97;;;;;;;;;;4878772;29;20547;-72
2023/09/09 08:52:39;;;;;;;6.90;6.50;;;;;;;;;;4882254;29;20720;-73
2023/09/09 08:55:05;;;;;;;7.30;6.73;;;;;;;;;;4885777;29;20445;-73
2023/09/09 08:57:32;;;;;;;8.80;8.10;;;;;;;;;;4881307;29;20437;-74
2023/09/09 08:59:59;;;;;;;7.03;6.40;;;;;;;;;;4881388;29;20461;-73
2023/09/09 09:02:25;;;;;;;7.80;7.50;;;;;;;;;;4878152;29;20971;-73
2023/09/09 09:04:52;;;;;;;7.33;6.83;;;;;;;;;;4881295;29;20445;-73
2023/09/09 09:07:19;;;;;;;6.83;6.50;;;;;;;;;;4877204;29;20457;-71
2023/09/09 09:09:46;;;;;;;6.50;6.20;;;;;;;;;;4872104;29;20449;-73
2023/09/09 09:12:14;;;;;;;7.20;6.70;;;;;;;;;;4884573;29;20469;-72
2023/09/09 09:14:46;;;;;;;7.30;6.77;;;;;;;;;;4877968;29;20539;-74
2023/09/09 09:17:15;;;;;;;8.00;7.30;;;;;;;;;;4884462;29;20678;-74
2023/09/09 09:19:41;;;;;;;12.67;11.40;;;;;;;;;;4887312;29;20879;-73
2023/09/09 09:22:08;;;;;;;7.27;6.63;;;;;;;;;;4875630;29;20449;-73
2023/09/09 09:24:46;;;;;;;7.53;6.90;;;;;;;;;;4870622;29;20467;-73
2023/09/09 09:27:16;;;;;;;7.00;6.57;;;;;;;;;;4880220;29;20444;-74
2023/09/09 09:29:44;;;;;;;7.13;6.63;;;;;;;;;;4872028;29;20446;-73
2023/09/09 09:32:11;;;;;;;8.13;6.13;;;;;;;;;;4878165;29;20472;-74
2023/09/09 09:34:38;;;;;;;6.10;5.70;;;;;;;;;;4887581;29;20471;-74
2023/09/09 09:37:11;;;;;;;6.93;6.23;;;;;;;;;;4882142;29;20469;-73
2023/09/09 09:39:37;;;;;;;7.03;6.50;;;;;;;;;;4876214;29;21323;-72
2023/09/09 09:42:03;;;;;;;8.30;7.60;;;;;;;;;;4879445;29;20457;-73
2023/09/09 09:44:30;;;;;;;7.20;6.77;;;;;;;;;;4886257;29;20457;-72
2023/09/09 09:47:00;;;;;;;9.70;6.40;;;;;;;;;;4878267;29;20477;-73
2023/09/09 09:49:36;;;;;;;8.30;7.70;;;;;;;;;;4874004;29;20980;-74
2023/09/09 09:52:03;;;;;;;5.83;5.60;;;;;;;;;;4876489;29;20460;-74
2023/09/09 09:54:31;;;;;;;6.47;5.87;;;;;;;;;;4878498;29;20452;-74
2023/09/09 09:57:02;;;;;;;6.80;5.97;;;;;;;;;;4884106;29;20444;-74
2023/09/09 09:59:35;;;;;;;6.50;6.07;;;;;;;;;;4886106;29;20438;-73
2023/09/09 10:02:03;;;;;;;6.80;5.60;;;;;;;;;;4886428;29;20459;-75
2023/09/09 10:04:52;;;;;;;6.50;6.20;;;;;;;;;;4882880;29;20521;-74
2023/09/09 10:07:23;;;;;;;7.03;6.33;;;;;;;;;;4878964;29;21203;-72
2023/09/09 10:09:53;;;;;;;5.70;5.20;;;;;;;;;;4874469;29;20796;-73
2023/09/09 10:12:23;;;;;;;6.33;5.93;;;;;;;;;;4886360;29;21016;-75
2023/09/09 10:14:49;;;;;;;7.20;6.17;;;;;;;;;;4882413;29;20528;-74
2023/09/09 10:17:16;;;;;;;7.13;6.53;;;;;;;;;;4879445;29;20452;-73
2023/09/09 10:19:43;;;;;;;6.30;5.90;;;;;;;;;;4875343;29;20829;-73
2023/09/09 10:22:10;;;;;;;7.43;6.70;;;;;;;;;;4886667;29;20445;-73
2023/09/09 10:24:36;;;;;;;6.97;6.43;;;;;;;;;;4893104;29;20778;-75
2023/09/09 10:27:03;;;;;;;6.87;6.13;;;;;;;;;;4882809;29;20504;-75
2023/09/09 10:29:30;;;;;;;8.87;5.80;;;;;;;;;;4893757;29;20481;-74
2023/09/09 10:31:58;;;;;;;6.63;6.17;;;;;;;;;;4876827;29;20491;-75
2023/09/09 10:34:24;;;;;;;7.07;6.40;;;;;;;;;;4877082;29;21351;-74
2023/09/09 10:36:54;;;;;;;6.60;5.50;;;;;;;;;;4874311;29;20481;-73
2023/09/09 10:39:23;;;;;;;6.33;5.90;;;;;;;;;;4877074;29;20540;-73
2023/09/09 10:41:50;;;;;;;5.73;5.43;;;;;;;;;;4887013;29;20505;-74
2023/09/09 10:44:16;;;;;;;9.83;6.63;;;;;;;;;;4878427;29;20448;-75
2023/09/09 10:46:42;;;;;;;8.23;5.90;;;;;;;;;;4881413;29;20823;-74
2023/09/09 10:49:08;;;;;;;7.40;5.57;;;;;;;;;;4872385;29;20463;-75
2023/09/09 10:51:50;;;;;;;7.57;6.20;;;;;;;;;;4875938;29;20906;-73
2023/09/09 10:54:19;;;;;;;10.50;6.87;;;;;;;;;;4872491;29;21059;-73
2023/09/09 10:56:49;;;;;;;16.80;7.00;;;;;;;;;;4876997;29;20450;-74
2023/09/09 10:59:26;;;;;;;6.60;6.00;;;;;;;;;;4877833;29;20529;-73
2023/09/09 11:02:08;;;;;;;6.87;6.07;;;;;;;;;;4878571;29;21036;-73
2023/09/09 11:04:36;;;;;;;7.57;6.23;;;;;;;;;;4878519;29;20530;-74
2023/09/09 11:07:07;;;;;;;6.87;6.27;;;;;;;;;;4873745;29;20462;-74
2023/09/09 11:09:33;;;;;;;6.70;6.03;;;;;;;;;;4876267;29;20448;-73
2023/09/09 11:11:59;;;;;;;10.80;9.80;;;;;;;;;;4879307;29;20847;-73
2023/09/09 11:14:31;;;;;;;7.33;6.80;;;;;;;;;;4879944;29;20440;-73
2023/09/09 11:16:57;;;;;;;7.83;5.43;;;;;;;;;;4873943;29;20540;-73
2023/09/09 11:19:24;;;;;;;8.07;5.77;;;;;;;;;;4875877;29;20462;-72
2023/09/09 11:21:51;;;;;;;6.63;5.87;;;;;;;;;;4876171;29;20812;-73
2023/09/09 11:24:17;;;;;;;7.10;6.60;;;;;;;;;;4879862;29;20449;-74
2023/09/09 11:26:51;;;;;;;6.37;5.87;;;;;;;;;;4880520;29;20441;-73
2023/09/09 11:29:18;;;;;;;6.70;6.30;;;;;;;;;;4874355;29;20476;-73
2023/09/09 11:31:45;;;;;;;7.60;5.40;;;;;;;;;;4878153;29;20477;-75
2023/09/09 11:34:11;;;;;;;7.97;6.50;;;;;;;;;;4874773;29;21222;-74
2023/09/09 11:36:37;;;;;;;6.43;5.87;;;;;;;;;;4879568;29;20433;-73
2023/09/09 11:39:06;;;;;;;7.47;7.00;;;;;;;;;;4878707;29;20436;-73
2023/09/09 11:41:32;;;;;;;7.33;6.60;;;;;;;;;;4880873;29;20440;-74
2023/09/09 11:44:08;;;;;;;6.93;6.23;;;;;;;;;;4869923;29;20481;-74
2023/09/09 11:46:47;;;;;;;10.50;6.20;;;;;;;;;;4874600;29;20535;-73
2023/09/09 11:49:13;;;;;;;10.17;7.10;;;;;;;;;;4874300;29;20531;-72
2023/09/09 11:51:40;;;;;;;6.07;5.43;;;;;;;;;;4875729;29;20480;-74
2023/09/09 11:54:07;;;;;;;7.33;6.57;;;;;;;;;;4866340;29;20453;-73
2023/09/09 11:56:33;;;;;;;6.73;6.40;;;;;;;;;;4878238;29;20473;-74
2023/09/09 11:59:06;;;;;;;7.50;6.80;;;;;;;;;;4876515;29;21123;-73
2023/09/09 12:01:40;;;;;;;7.10;6.70;;;;;;;;;;4873890;29;20862;-73
2023/09/09 12:04:06;;;;;;;9.70;6.70;;;;;;;;;;4874994;29;20843;-72
2023/09/09 12:06:33;;;;;;;6.63;6.13;;;;;;;;;;4880039;29;20460;-72
2023/09/09 12:09:00;;;;;;;6.70;6.20;;;;;;;;;;4878327;29;20475;-73
2023/09/09 12:11:26;;;;;;;11.70;6.23;;;;;;;;;;4878315;29;20486;-73
2023/09/09 12:13:52;;;;;;;6.27;5.57;;;;;;;;;;4893590;29;20444;-73
2023/09/09 12:16:18;;;;;;;10.20;6.80;;;;;;;;;;4885545;29;21162;-73
2023/09/09 12:18:53;;;;;;;6.63;6.20;;;;;;;;;;4881163;29;20449;-74
2023/09/09 12:21:19;;;;;;;8.93;6.70;;;;;;;;;;4889419;29;20433;-73
2023/09/09 12:23:46;;;;;;;9.07;7.50;;;;;;;;;;4895234;29;20863;-74
2023/09/09 12:26:17;;;;;;;7.23;6.60;;;;;;;;;;4886215;29;20456;-74
2023/09/09 12:28:45;;;;;;;8.17;7.30;;;;;;;;;;4895410;29;20999;-75
2023/09/09 12:31:11;;;;;;;8.17;6.60;;;;;;;;;;4890831;29;20452;-74
2023/09/09 12:33:48;;;;;;;8.37;7.10;;;;;;;;;;4890348;29;20440;-73
2023/09/09 12:36:18;;;;;;;7.67;6.97;;;;;;;;;;4887567;29;20468;-74
2023/09/09 12:38:46;;;;;;;7.30;6.23;;;;;;;;;;4890894;29;20444;-73
2023/09/09 12:41:12;;;;;;;8.07;6.00;;;;;;;;;;4893283;29;20519;-74
2023/09/09 12:43:38;;;;;;;7.60;6.97;;;;;;;;;;4878084;29;20491;-74
2023/09/09 12:46:08;;;;;;;7.00;6.10;;;;;;;;;;4878444;29;20442;-74
2023/09/09 12:48:51;;;;;;;6.60;6.20;;;;;;;;;;4879086;29;20477;-74
2023/09/09 12:51:17;;;;;;;6.60;6.00;;;;;;;;;;4877943;29;20433;-74
2023/09/09 12:53:43;;;;;;;6.23;5.73;;;;;;;;;;4882901;29;20944;-74
2023/09/09 12:56:09;;;;;;;6.70;6.10;;;;;;;;;;4882403;29;20457;-74
2023/09/09 12:58:34;;;;;;;6.17;5.57;;;;;;;;;;4882337;29;20472;-73
2023/09/09 13:01:00;;;;;;;7.43;5.47;;;;;;;;;;4877066;29;20980;-75
2023/09/09 13:03:26;;;;;;;12.00;7.50;;;;;;;;;;4881775;29;20476;-75
2023/09/09 13:05:52;;;;;;;6.30;5.70;;;;;;;;;;4881529;29;21007;-75
2023/09/09 13:08:18;;;;;;;9.43;6.10;;;;;;;;;;4878019;29;20463;-75
2023/09/09 13:10:45;;;;;;;6.47;5.87;;;;;;;;;;4881180;29;20444;-74
2023/09/09 13:13:11;;;;;;;6.60;6.00;;;;;;;;;;4881675;29;20904;-74
2023/09/09 13:15:36;;;;;;;8.00;6.13;;;;;;;;;;4883423;29;20523;-74
2023/09/09 13:18:03;;;;;;;7.00;6.60;;;;;;;;;;4878961;29;20449;-74
2023/09/09 13:20:30;;;;;;;6.90;5.97;;;;;;;;;;4882512;29;20964;-75
2023/09/09 13:22:56;;;;;;;9.20;5.30;;;;;;;;;;4882024;29;20487;-74
2023/09/09 13:25:22;;;;;;;5.57;5.00;;;;;;;;;;4881918;29;20949;-74
2023/09/09 13:27:49;;;;;;;5.77;5.37;;;;;;;;;;4881339;29;20573;-73
2023/09/09 13:30:15;;;;;;;10.17;5.77;;;;;;;;;;4877450;29;20456;-74
2023/09/09 13:32:42;;;;;;;9.03;5.30;;;;;;;;;;4882060;29;21012;-74
2023/09/09 13:35:08;;;;;;;7.90;7.03;;;;;;;;;;4877112;29;20458;-73
2023/09/09 13:37:37;;;;;;;7.40;6.70;;;;;;;;;;4876994;29;20484;-75
2023/09/09 13:40:04;;;;;;;7.40;6.40;;;;;;;;;;4873546;29;20566;-74
2023/09/09 13:42:32;;;;;;;5.50;5.20;;;;;;;;;;4876274;29;20464;-74
2023/09/09 13:44:58;;;;;;;9.37;7.33;;;;;;;;;;4870713;29;20594;-74
2023/09/09 13:47:24;;;;;;;8.00;7.50;;;;;;;;;;4875728;29;20456;-72
2023/09/09 13:49:53;;;;;;;6.13;5.73;;;;;;;;;;4876528;29;20787;-74
2023/09/09 13:52:19;;;;;;;5.90;5.40;;;;;;;;;;4878207;29;20472;-75
2023/09/09 13:54:46;;;;;;;9.03;5.03;;;;;;;;;;4881951;29;20467;-74
2023/09/09 13:57:12;;;;;;;6.90;5.50;;;;;;;;;;4878728;29;20463;-74
2023/09/09 13:59:38;;;;;;;7.77;7.00;;;;;;;;;;4880151;29;21039;-74
2023/09/09 14:02:05;;;;;;;9.10;6.90;;;;;;;;;;4882427;29;20433;-73
2023/09/09 14:04:31;;;;;;;7.37;6.90;;;;;;;;;;4880769;29;20527;-74
2023/09/09 14:06:57;;;;;;;7.97;7.23;;;;;;;;;;4882047;29;20460;-73
2023/09/09 14:09:23;;;;;;;7.83;7.40;;;;;;;;;;4876390;29;20456;-75
2023/09/09 14:11:49;;;;;;;6.60;6.30;;;;;;;;;;4883041;29;21088;-74
2023/09/09 14:14:17;;;;;;;6.87;6.47;;;;;;;;;;4877853;29;20457;-74
2023/09/09 14:16:43;;;;;;;6.80;6.50;;;;;;;;;;4880893;29;20511;-74
2023/09/09 14:19:09;;;;;;;7.57;6.80;;;;;;;;;;4878472;29;20535;-75
2023/09/09 14:21:35;;;;;;;8.90;8.00;;;;;;;;;;4881839;29;20893;-74
2023/09/09 14:24:02;;;;;;;8.40;7.43;;;;;;;;;;4878964;29;20703;-74
2023/09/09 14:26:28;;;;;;;9.17;8.47;;;;;;;;;;4882027;29;20445;-74
2023/09/09 14:28:54;;;;;;;8.10;7.70;;;;;;;;;;4878924;29;21082;-75